Time;durP1;ratioP1;P1;durP2;ratioP2;P2;SDS_P1;SDS_P2;PMS_P1;PMS_P2;Temp;Humidity;BMP_temperature;BMP_pressure;BME280_temperature;BME280_humidity;BME280_pressure;Samples;Min_cycle;Max_cycle;Signal;HPM_P1;HPM_P2
2021/12/23 00:01:58;;;;;;;;;69.00;52.25;;;;;0.46;76.66;99868.34;5086670;27;46086;-74
2021/12/23 00:04:23;;;;;;;;;74.50;59.25;;;;;0.45;76.49;99866.63;5096342;27;45470;-74
2021/12/23 00:06:49;;;;;;;;;76.50;59.50;;;;;0.44;76.63;99869.19;5086355;27;45385;-74
2021/12/23 00:09:14;;;;;;;;;78.75;59.50;;;;;0.42;76.38;99876.94;5096372;27;45232;-74
2021/12/23 00:11:40;;;;;;;;;71.50;53.25;;;;;0.41;76.34;99871.72;5087474;27;46321;-74
2021/12/23 00:14:06;;;;;;;;;74.50;60.25;;;;;0.38;76.72;99872.56;5096463;27;45431;-74
2021/12/23 00:16:45;;;;;;;;;81.00;59.25;;;;;0.36;76.73;99866.47;5093212;27;45450;-74
2021/12/23 00:24:39;;;;;;;;;73.00;57.00;;;;;0.31;76.62;99861.25;5095884;27;45454;-74
2021/12/23 00:27:06;;;;;;;;;84.50;63.50;;;;;0.29;76.97;99855.19;5090027;27;45400;-74
2021/12/23 00:29:31;;;;;;;;;74.50;61.00;;;;;0.25;76.89;99858.56;5095650;27;45355;-74
2021/12/23 00:31:57;;;;;;;;;72.50;57.50;;;;;0.26;76.93;99846.47;5094095;27;45973;-74
2021/12/23 00:34:23;;;;;;;;;71.00;55.00;;;;;0.25;76.83;99855.97;5093822;27;45604;-74
2021/12/23 00:36:49;;;;;;;;;73.00;56.50;;;;;0.26;77.00;99851.66;5095469;27;45446;-74
2021/12/23 00:39:16;;;;;;;;;70.00;56.50;;;;;0.24;77.14;99853.38;5096005;27;45483;-74
2021/12/23 00:41:44;;;;;;;;;87.25;67.00;;;;;0.23;76.93;99860.28;5094113;27;45371;-74
2021/12/23 00:44:09;;;;;;;;;76.25;61.25;;;;;0.20;77.09;99860.22;5095845;27;45384;-74
2021/12/23 00:46:35;;;;;;;;;72.00;58.25;;;;;0.20;76.64;99862.81;5095658;27;45483;-74
2021/12/23 00:49:00;;;;;;;;;66.75;51.25;;;;;0.20;77.18;99862.81;5085343;27;45630;-74
2021/12/23 00:51:26;;;;;;;;;78.25;60.25;;;;;0.19;76.93;99871.44;5087051;27;45438;-74
2021/12/23 00:53:54;;;;;;;;;76.75;58.75;;;;;0.19;76.96;99874.03;5090993;27;45448;-74
2021/12/23 00:56:19;;;;;;;;;72.75;55.50;;;;;0.19;77.23;99867.97;5086831;27;45509;-74
2021/12/23 00:58:45;;;;;;;;;74.50;57.00;;;;;0.19;76.85;99867.97;5090316;27;45554;-74
2021/12/23 01:01:11;;;;;;;;;73.00;59.50;;;;;0.18;77.07;99868.81;5095224;27;45313;-74
2021/12/23 01:03:37;;;;;;;;;68.00;54.75;;;;;0.19;77.10;99867.97;5094020;27;45377;-74
2021/12/23 01:06:03;;;;;;;;;75.00;56.25;;;;;0.19;77.08;99867.97;5091135;27;45522;-74
2021/12/23 01:08:28;;;;;;;;;75.25;58.75;;;;;0.20;77.16;99862.81;5094957;27;45561;-74
2021/12/23 01:10:56;;;;;;;;;73.25;60.00;;;;;0.19;76.90;99866.25;5092167;27;45507;-74
2021/12/23 01:13:26;;;;;;;;;74.75;57.50;;;;;0.20;77.12;99867.13;5091899;27;45447;-74
2021/12/23 01:16:03;;;;;;;;;68.50;54.50;;;;;0.20;77.08;99867.13;5092364;27;45642;-74
2021/12/23 01:18:33;;;;;;;;;74.25;57.00;;;;;0.20;77.15;99875.78;5093796;27;45385;-74
2021/12/23 01:21:32;;;;;;;;;71.75;52.25;;;;;0.21;77.06;99876.66;5090135;27;46853;-74
2021/12/23 01:23:57;;;;;;;;;73.25;55.00;;;;;0.22;77.14;99875.81;5091950;27;45382;-74
2021/12/23 01:26:23;;;;;;;;;76.50;59.25;;;;;0.22;77.26;99863.72;5092706;27;45463;-74
2021/12/23 01:28:56;;;;;;;;;72.50;54.00;;;;;0.25;77.06;99861.16;5095363;27;45513;-74
2021/12/23 01:31:23;;;;;;;;;70.25;53.75;;;;;0.27;76.77;99866.38;5094298;27;46541;-74
2021/12/23 01:33:49;;;;;;;;;74.75;57.75;;;;;0.28;77.03;99869.00;5083365;27;45568;-74
2021/12/23 01:36:14;;;;;;;;;73.00;57.00;;;;;0.29;76.82;99862.97;5090625;27;45613;-75
2021/12/23 01:38:40;;;;;;;;;74.50;56.50;;;;;0.31;76.37;99863.84;5094804;27;45482;-74
2021/12/23 01:41:05;;;;;;;;;74.25;53.50;;;;;0.33;76.61;99867.34;5092659;27;45414;-74
2021/12/23 01:43:31;;;;;;;;;69.25;54.50;;;;;0.34;76.55;99868.19;5093846;27;45435;-74
2021/12/23 01:45:56;;;;;;;;;61.00;49.50;;;;;0.35;76.36;99864.72;5091318;27;45548;-74
2021/12/23 01:48:22;;;;;;;;;70.50;56.50;;;;;0.37;76.34;99864.75;5090491;27;45460;-74
2021/12/23 01:50:48;;;;;;;;;64.00;52.25;;;;;0.39;76.31;99871.72;5092650;27;45473;-74
2021/12/23 01:53:14;;;;;;;;;73.75;55.25;;;;;0.41;75.70;99872.59;5090203;27;45418;-74
2021/12/23 01:55:42;;;;;;;;;62.75;50.50;;;;;0.41;75.80;99872.59;5093347;27;45510;-74
2021/12/23 01:58:08;;;;;;;;;67.75;54.75;;;;;0.42;75.57;99870.88;5091792;27;45409;-74
2021/12/23 02:00:37;;;;;;;;;59.50;49.50;;;;;0.39;75.27;99861.34;5092259;27;46507;-75
2021/12/23 02:03:03;;;;;;;;;55.50;48.00;;;;;0.40;75.55;99862.22;5086770;27;45339;-74
2021/12/23 02:05:30;;;;;;;;;67.00;53.50;;;;;0.40;75.40;99864.81;5093631;27;45511;-74
2021/12/23 02:07:57;;;;;;;;;68.50;55.50;;;;;0.39;75.75;99861.34;5093797;27;45497;-74
2021/12/23 02:10:22;;;;;;;;;68.75;52.75;;;;;0.39;75.70;99855.28;5098178;27;45359;-74
2021/12/23 02:12:50;;;;;;;;;73.75;56.50;;;;;0.40;75.19;99862.22;5089633;27;45435;-74
2021/12/23 02:15:17;;;;;;;;;65.25;52.25;;;;;0.40;75.50;99855.31;5078352;27;45417;-74
2021/12/23 02:17:44;;;;;;;;;78.25;59.00;;;;;0.42;75.40;99855.31;5075679;27;45460;-74
2021/12/23 02:20:12;;;;;;;;;66.00;52.00;;;;;0.43;75.40;99854.47;5081501;27;45364;-74
2021/12/23 02:22:39;;;;;;;;;64.50;53.00;;;;;0.42;76.07;99851.00;5077685;27;45564;-74
2021/12/23 02:25:07;;;;;;;;;76.00;58.25;;;;;0.40;75.68;99847.53;5080956;27;45622;-74
2021/12/23 02:27:33;;;;;;;;;74.75;56.50;;;;;0.38;75.77;99845.75;5076502;27;45463;-74
2021/12/23 02:29:59;;;;;;;;;72.75;55.50;;;;;0.36;75.68;99843.13;5086485;27;45906;-74
2021/12/23 02:32:24;;;;;;;;;55.25;47.25;;;;;0.34;75.91;99840.53;5109918;27;45345;-74
2021/12/23 02:34:50;;;;;;;;;66.50;52.75;;;;;0.29;75.72;99834.44;5078004;27;45534;-74
2021/12/23 02:37:15;;;;;;;;;77.00;56.75;;;;;0.26;75.99;99834.38;5086387;27;45462;-73
2021/12/23 02:39:42;;;;;;;;;70.25;53.75;;;;;0.22;76.13;99832.59;5087209;27;46327;-74
2021/12/23 02:42:08;;;;;;;;;68.00;55.00;;;;;0.18;76.21;99833.41;5089932;27;45375;-75
2021/12/23 02:44:33;;;;;;;;;62.50;50.25;;;;;0.15;76.39;99829.94;5088718;27;45393;-75
2021/12/23 02:46:59;;;;;;;;;63.75;52.75;;;;;0.13;76.47;99836.81;5084985;27;45516;-73
2021/12/23 02:49:25;;;;;;;;;78.50;56.50;;;;;0.09;76.38;99824.66;5096189;27;45616;-73
2021/12/23 02:51:51;;;;;;;;;69.50;56.00;;;;;0.05;76.59;99828.03;5087140;27;45456;-73
2021/12/23 02:54:16;;;;;;;;;74.25;58.25;;;;;0.00;76.81;99818.47;5096613;27;45466;-73
2021/12/23 02:56:42;;;;;;;;;70.25;54.00;;;;;-0.01;76.77;99816.78;5090643;27;45489;-73
2021/12/23 02:59:07;;;;;;;;;75.50;56.75;;;;;-0.03;76.48;99821.06;5093122;27;46684;-73
2021/12/23 03:01:33;;;;;;;;;74.25;57.50;;;;;-0.05;76.81;99807.22;5093858;27;45492;-73
2021/12/23 03:03:59;;;;;;;;;76.00;58.00;;;;;-0.06;76.67;99797.69;5095007;27;45451;-73
2021/12/23 03:06:25;;;;;;;;;73.75;58.00;;;;;-0.07;77.00;99793.34;5092557;27;45387;-73
2021/12/23 03:09:00;;;;;;;;;70.75;57.50;;;;;-0.10;76.81;99785.53;5096775;27;45986;-73
2021/12/23 03:11:27;;;;;;;;;77.25;57.00;;;;;-0.11;77.02;99790.69;5089536;27;45568;-73
2021/12/23 03:13:54;;;;;;;;;75.25;59.00;;;;;-0.11;77.16;99795.88;5112995;27;45450;-74
2021/12/23 03:16:22;;;;;;;;;63.50;52.75;;;;;-0.12;77.16;99782.06;5092705;27;45648;-74
2021/12/23 03:18:48;;;;;;;;;70.75;56.00;;;;;-0.12;77.15;99781.19;5095116;27;46562;-74
2021/12/23 03:21:13;;;;;;;;;69.00;53.50;;;;;-0.14;77.00;99777.69;5091086;27;45419;-75
2021/12/23 03:23:39;;;;;;;;;70.50;55.25;;;;;-0.16;77.03;99775.06;5097190;27;45475;-75
2021/12/23 03:26:05;;;;;;;;;60.50;52.75;;;;;-0.19;77.32;99772.47;5091295;27;45442;-74
2021/12/23 03:28:31;;;;;;;;;67.25;50.00;;;;;-0.19;76.85;99758.66;5097168;27;46241;-74
2021/12/23 03:30:57;;;;;;;;;72.00;54.50;;;;;-0.20;77.20;99762.09;5093503;27;45547;-75
2021/12/23 03:33:22;;;;;;;;;81.00;57.25;;;;;-0.21;77.32;99758.63;5089461;27;45497;-74
2021/12/23 03:35:48;;;;;;;;;66.25;51.25;;;;;-0.21;77.14;99765.53;5088958;27;45380;-74
2021/12/23 03:38:15;;;;;;;;;68.50;56.75;;;;;-0.20;77.07;99769.84;5096762;27;46664;-74
2021/12/23 03:40:41;;;;;;;;;72.50;56.00;;;;;-0.20;77.27;99755.19;5096520;27;45403;-75
2021/12/23 03:43:07;;;;;;;;;71.50;55.75;;;;;-0.19;77.29;99761.25;5095539;27;45469;-75
2021/12/23 03:45:33;;;;;;;;;63.25;52.25;;;;;-0.19;77.14;99758.66;5096302;27;45458;-75
2021/12/23 03:47:58;;;;;;;;;75.00;56.75;;;;;-0.16;77.18;99751.75;5084346;27;47282;-75
2021/12/23 03:50:25;;;;;;;;;73.25;55.25;;;;;-0.13;76.75;99740.56;5096346;27;45494;-75
2021/12/23 03:52:52;;;;;;;;;68.50;55.25;;;;;-0.13;76.95;99737.97;5087900;27;45479;-75
2021/12/23 03:55:18;;;;;;;;;69.75;54.75;;;;;-0.13;77.01;99732.78;5096438;27;45546;-75
2021/12/23 03:57:46;;;;;;;;;68.75;54.75;;;;;-0.12;77.22;99738.00;5089436;27;46226;-75
2021/12/23 04:00:14;;;;;;;;;68.00;54.75;;;;;-0.11;77.45;99734.56;5096309;27;45593;-72
2021/12/23 04:02:40;;;;;;;;;69.75;54.25;;;;;-0.10;77.08;99735.44;5086168;27;45371;-75
2021/12/23 04:05:06;;;;;;;;;71.75;53.00;;;;;-0.09;76.88;99726.81;5096246;27;45238;-75
2021/12/23 04:07:33;;;;;;;;;59.50;47.75;;;;;-0.09;77.00;99730.28;5092671;27;48071;-75
2021/12/23 04:09:58;;;;;;;;;56.75;48.00;;;;;-0.09;76.79;99722.50;5094844;27;45417;-74
2021/12/23 04:12:24;;;;;;;;;31.25;31.25;;;;;-0.08;76.85;99720.78;5088547;27;45859;-75
2021/12/23 04:14:49;;;;;;;;;69.75;56.00;;;;;-0.08;76.79;99718.19;5096168;27;45520;-74
2021/12/23 04:17:15;;;;;;;;;64.50;49.00;;;;;-0.08;77.19;99731.13;5088875;27;45408;-74
2021/12/23 04:19:43;;;;;;;;;66.00;49.75;;;;;-0.09;77.31;99729.41;5091703;27;45419;-74
2021/12/23 04:22:09;;;;;;;;;68.75;55.25;;;;;-0.11;76.99;99726.78;5093736;27;45481;-74
2021/12/23 04:24:34;;;;;;;;;66.25;53.25;;;;;-0.12;77.25;99717.25;5094530;27;45359;-74
2021/12/23 04:26:59;;;;;;;;;70.25;55.75;;;;;-0.12;77.06;99726.75;5093048;27;45616;-74
2021/12/23 04:29:25;;;;;;;;;71.75;55.25;;;;;-0.14;77.02;99726.75;5095733;27;45355;-74
2021/12/23 04:31:50;;;;;;;;;69.25;54.25;;;;;-0.16;76.97;99715.47;5093105;27;45309;-74
2021/12/23 04:34:16;;;;;;;;;69.00;52.25;;;;;-0.16;77.03;99720.66;5094066;27;45425;-74
2021/12/23 04:36:41;;;;;;;;;64.25;52.25;;;;;-0.15;77.22;99726.72;5093446;27;46940;-74
2021/12/23 04:39:07;;;;;;;;;69.25;50.00;;;;;-0.15;77.07;99725.00;5095309;27;45524;-74
2021/12/23 04:41:32;;;;;;;;;74.00;54.25;;;;;-0.13;76.82;99717.25;5096217;27;45356;-74
2021/12/23 04:43:58;;;;;;;;;64.75;54.50;;;;;-0.10;77.15;99728.53;5094881;27;45482;-74
2021/12/23 04:46:24;;;;;;;;;66.00;51.25;;;;;-0.08;76.93;99719.06;5087550;27;45448;-74
2021/12/23 04:48:51;;;;;;;;;65.50;52.00;;;;;-0.07;76.80;99720.78;5094494;27;45511;-74
2021/12/23 04:51:17;;;;;;;;;65.00;50.00;;;;;-0.05;76.85;99716.50;5088644;27;45378;-74
2021/12/23 04:53:44;;;;;;;;;65.75;49.75;;;;;-0.03;76.78;99724.28;5090612;27;45404;-74
2021/12/23 04:56:10;;;;;;;;;67.75;51.75;;;;;-0.01;76.73;99726.06;5093854;27;45620;-74
2021/12/23 04:58:36;;;;;;;;;65.25;48.50;;;;;-0.02;76.92;99720.84;5095320;27;45562;-74
2021/12/23 05:01:03;;;;;;;;;69.50;54.75;;;;;-0.01;76.73;99725.19;5092913;27;45495;-74
2021/12/23 05:03:28;;;;;;;;;69.50;53.75;;;;;-0.02;76.71;99726.91;5093356;27;45617;-74
2021/12/23 05:05:54;;;;;;;;;63.75;50.00;;;;;-0.02;76.54;99726.91;5090876;27;47466;-74
2021/12/23 05:08:20;;;;;;;;;62.50;52.75;;;;;-0.02;76.62;99732.09;5090158;27;45372;-74
2021/12/23 05:10:46;;;;;;;;;63.25;51.50;;;;;-0.02;76.53;99732.09;5092787;27;45373;-74
2021/12/23 05:13:12;;;;;;;;;66.00;51.75;;;;;-0.03;76.53;99732.94;5089999;27;45516;-74
2021/12/23 05:15:38;;;;;;;;;61.00;50.50;;;;;-0.05;76.62;99745.00;5093974;27;45460;-74
2021/12/23 05:18:04;;;;;;;;;68.50;54.50;;;;;-0.08;76.92;99744.97;5089509;27;45504;-74
2021/12/23 05:20:30;;;;;;;;;68.25;52.25;;;;;-0.15;77.24;99750.91;5095092;27;45386;-74
2021/12/23 05:22:55;;;;;;;;;66.50;48.00;;;;;-0.22;77.38;99761.19;5123306;27;45911;-74
2021/12/23 05:25:21;;;;;;;;;55.50;47.25;;;;;-0.25;77.58;99763.72;5095351;27;45321;-74
2021/12/23 05:27:48;;;;;;;;;73.75;55.00;;;;;-0.29;78.00;99762.81;5091262;27;45390;-74
2021/12/23 05:30:16;;;;;;;;;69.50;55.00;;;;;-0.31;77.77;99771.41;5094126;27;45378;-74
2021/12/23 05:32:42;;;;;;;;;71.25;50.25;;;;;-0.35;78.22;99757.56;5083326;27;45598;-75
2021/12/23 05:35:10;;;;;;;;;65.50;51.75;;;;;-0.38;78.08;99761.00;5094808;27;45507;-74
2021/12/23 05:37:36;;;;;;;;;56.75;48.25;;;;;-0.38;78.22;99763.56;5092453;27;45367;-74
2021/12/23 05:40:03;;;;;;;;;63.25;51.50;;;;;-0.36;78.26;99772.25;5095206;27;45324;-74
2021/12/23 05:42:28;;;;;;;;;76.00;55.25;;;;;-0.32;78.43;99775.72;5088658;27;45459;-74
2021/12/23 05:44:53;;;;;;;;;73.00;56.25;;;;;-0.29;78.39;99775.78;5097920;27;46399;-75
2021/12/23 05:47:19;;;;;;;;;69.25;54.25;;;;;-0.23;78.21;99770.69;5082189;27;45366;-74
2021/12/23 05:49:44;;;;;;;;;74.25;55.00;;;;;-0.20;78.11;99772.44;5095794;27;45383;-74
2021/12/23 05:52:10;;;;;;;;;72.25;58.00;;;;;-0.16;78.22;99782.84;5093629;27;45575;-74
2021/12/23 05:54:35;;;;;;;;;76.75;56.50;;;;;-0.12;77.82;99788.94;5095956;27;47315;-74
2021/12/23 05:57:02;;;;;;;;;68.50;54.00;;;;;-0.11;77.44;99790.69;5087266;27;45418;-74
2021/12/23 05:59:33;;;;;;;;;69.25;52.50;;;;;-0.11;77.38;99791.56;5098348;27;45446;-74
2021/12/23 06:02:05;;;;;;;;;73.00;57.50;;;;;-0.11;77.46;99795.88;5087482;27;45539;-74
2021/12/23 06:04:31;;;;;;;;;67.00;50.75;;;;;-0.11;77.62;99790.69;5097044;27;46418;-74
2021/12/23 06:06:57;;;;;;;;;68.75;54.25;;;;;-0.09;77.36;99792.47;5089293;27;45358;-75
2021/12/23 06:09:22;;;;;;;;;70.50;54.25;;;;;-0.10;77.75;99798.50;5097395;27;45548;-74
2021/12/23 06:11:47;;;;;;;;;71.00;58.00;;;;;-0.11;77.53;99801.94;5090132;27;45551;-74
2021/12/23 06:14:13;;;;;;;;;65.25;54.75;;;;;-0.11;77.29;99798.47;5098191;27;46300;-74
2021/12/23 06:16:38;;;;;;;;;72.00;56.50;;;;;-0.12;77.61;99804.50;5096324;27;45375;-74
2021/12/23 06:19:04;;;;;;;;;62.75;53.50;;;;;-0.13;77.80;99803.63;5096755;27;45523;-74
2021/12/23 06:21:31;;;;;;;;;72.50;54.25;;;;;-0.14;77.43;99799.28;5095011;27;45555;-74
2021/12/23 06:23:57;;;;;;;;;96.50;72.25;;;;;-0.16;77.43;99803.56;5087022;27;46227;-74
2021/12/23 06:26:23;;;;;;;;;71.75;53.25;;;;;-0.20;77.70;99788.88;5095497;27;45569;-74
2021/12/23 06:28:48;;;;;;;;;69.50;52.75;;;;;-0.21;77.44;99791.44;5088337;27;45611;-74
2021/12/23 06:31:14;;;;;;;;;75.75;57.75;;;;;-0.22;77.71;99792.28;5095176;27;45393;-74
2021/12/23 06:33:39;;;;;;;;;65.50;53.50;;;;;-0.25;77.46;99798.28;5096780;27;46371;-74
2021/12/23 06:36:05;;;;;;;;;71.75;54.50;;;;;-0.27;77.70;99801.69;5095393;27;45376;-74
2021/12/23 06:38:30;;;;;;;;;69.25;54.75;;;;;-0.30;77.80;99804.25;5094894;27;45452;-74
2021/12/23 06:40:56;;;;;;;;;76.00;59.75;;;;;-0.34;77.49;99795.59;5090662;27;45441;-74
2021/12/23 06:43:21;;;;;;;;;73.50;59.50;;;;;-0.36;77.87;99792.97;5087936;27;46163;-74
2021/12/23 06:45:47;;;;;;;;;69.25;50.25;;;;;-0.38;77.81;99797.25;5094320;27;45467;-74
2021/12/23 06:48:12;;;;;;;;;61.25;52.50;;;;;-0.40;77.89;99801.53;5086139;27;45429;-74
2021/12/23 06:50:38;;;;;;;;;64.50;51.50;;;;;-0.41;78.19;99799.78;5097237;27;45351;-64
2021/12/23 06:53:04;;;;;;;;;70.75;54.50;;;;;-0.33;78.33;99796.41;5097618;27;45380;-70
2021/12/23 06:55:30;;;;;;;;;72.50;54.75;;;;;-0.26;78.37;99795.66;5095236;27;45673;-69
2021/12/23 06:57:57;;;;;;;;;73.75;57.00;;;;;-0.19;78.26;99790.59;5086733;27;45377;-69
2021/12/23 07:00:25;;;;;;;;;72.25;57.25;;;;;-0.13;78.15;99790.66;5097028;27;45537;-70
2021/12/23 07:02:51;;;;;;;;;63.75;50.75;;;;;-0.05;77.89;99789.06;5083223;27;46638;-68
2021/12/23 07:05:17;;;;;;;;;66.75;54.75;;;;;0.00;77.77;99783.94;5094034;27;45552;-69
2021/12/23 07:07:56;;;;;;;;;70.50;53.25;;;;;0.04;77.52;99796.06;5094207;27;45392;-69
2021/12/23 07:10:26;;;;;;;;;74.00;55.00;;;;;0.10;77.45;99798.75;5096281;27;45467;-70
2021/12/23 07:12:52;;;;;;;;;68.00;54.75;;;;;0.13;77.37;99788.44;5088305;27;46399;-70
2021/12/23 07:15:18;;;;;;;;;69.25;52.50;;;;;0.16;77.44;99785.88;5095894;27;45297;-69
2021/12/23 07:17:44;;;;;;;;;63.75;52.50;;;;;0.22;77.13;99780.75;5090777;27;45399;-69
2021/12/23 07:20:10;;;;;;;;;65.75;53.50;;;;;0.27;77.44;99781.69;5112063;27;45700;-69
2021/12/23 07:22:35;;;;;;;;;70.75;55.00;;;;;0.33;77.11;99786.06;5096059;27;45547;-70
2021/12/23 07:25:02;;;;;;;;;76.00;61.25;;;;;0.38;77.07;99784.38;5094036;27;45480;-69
2021/12/23 07:27:27;;;;;;;;;69.50;55.50;;;;;0.42;76.95;99782.69;5107478;27;45460;-70
2021/12/23 07:29:53;;;;;;;;;65.50;50.75;;;;;0.46;76.66;99785.34;5094374;27;45565;-70
2021/12/23 07:32:18;;;;;;;;;65.75;51.50;;;;;0.50;77.01;99781.94;5094229;27;46342;-70
2021/12/23 07:34:44;;;;;;;;;71.00;53.00;;;;;0.55;76.56;99782.84;5095077;27;45396;-70
2021/12/23 07:37:10;;;;;;;;;62.25;45.25;;;;;0.59;76.41;99782.03;5096236;27;45970;-69
2021/12/23 07:39:38;;;;;;;;;68.25;54.50;;;;;0.64;76.11;99780.38;5084914;27;45420;-70
2021/12/23 07:42:05;;;;;;;;;64.75;54.75;;;;;0.71;76.25;99786.47;5088191;27;46501;-70
2021/12/23 07:44:30;;;;;;;;;66.50;54.00;;;;;0.76;75.65;99791.72;5091610;27;45462;-70
2021/12/23 07:46:58;;;;;;;;;65.75;50.50;;;;;0.81;75.88;99784.84;5086553;27;45514;-70
2021/12/23 07:49:23;;;;;;;;;55.00;46.00;;;;;0.84;75.22;99788.31;5095711;27;45438;-70
2021/12/23 07:51:49;;;;;;;;;54.25;44.75;;;;;0.87;75.41;99784.88;5089091;27;45421;-70
2021/12/23 07:54:14;;;;;;;;;59.50;48.75;;;;;0.92;75.16;99788.41;5085903;27;45472;-70
2021/12/23 07:56:40;;;;;;;;;55.33;45.00;;;;;0.94;74.82;99787.56;5078063;27;45371;-70
2021/12/23 07:59:05;;;;;;;;;61.00;44.25;;;;;0.97;74.82;99789.31;5091496;27;45327;-70
2021/12/23 08:01:31;;;;;;;;;64.25;51.00;;;;;1.00;74.80;99790.22;5090793;27;45658;-70
2021/12/23 08:03:56;;;;;;;;;63.50;50.25;;;;;1.03;74.50;99794.53;5089241;27;45340;-70
2021/12/23 08:06:22;;;;;;;;;65.50;50.75;;;;;1.03;74.35;99791.94;5086546;27;45413;-69
2021/12/23 08:08:47;;;;;;;;;57.75;47.00;;;;;1.00;74.30;99785.03;5089549;27;45406;-69
2021/12/23 08:11:12;;;;;;;;;66.50;54.50;;;;;0.96;74.40;99788.44;5090145;27;46832;-71
2021/12/23 08:13:38;;;;;;;;;69.75;53.25;;;;;0.90;74.11;99790.09;5092677;27;45387;-68
2021/12/23 08:16:04;;;;;;;;;69.00;54.00;;;;;0.88;74.32;99797.00;5090004;27;45389;-70
2021/12/23 08:18:32;;;;;;;;;66.00;53.50;;;;;0.85;74.24;99792.66;5094454;27;45387;-70
2021/12/23 08:20:59;;;;;;;;;64.75;52.75;;;;;0.82;74.31;99790.06;5094881;27;45399;-70
2021/12/23 08:23:25;;;;;;;;;65.75;54.00;;;;;0.80;74.34;99798.69;5093318;27;45472;-70
2021/12/23 08:25:50;;;;;;;;;66.50;53.50;;;;;0.78;74.37;99793.47;5092898;27;45402;-70
2021/12/23 08:28:16;;;;;;;;;68.50;52.00;;;;;0.78;74.50;99795.19;5093651;27;45537;-71
2021/12/23 08:30:42;;;;;;;;;72.00;54.00;;;;;0.77;74.03;99788.25;5092992;27;46254;-70
2021/12/23 08:33:08;;;;;;;;;65.00;48.75;;;;;0.77;74.27;99790.84;5082177;27;45423;-70
2021/12/23 08:35:35;;;;;;;;;59.25;47.00;;;;;0.77;74.25;99783.94;5086288;27;45314;-70
2021/12/23 08:38:01;;;;;;;;;62.00;51.25;;;;;0.79;74.22;99786.56;5080116;27;45607;-70
2021/12/23 08:40:29;;;;;;;;;62.25;47.50;;;;;0.82;73.98;99779.69;5075813;27;46238;-68
2021/12/23 08:42:57;;;;;;;;;66.00;54.25;;;;;0.87;74.35;99771.91;5079016;27;45811;-68
2021/12/23 08:45:24;;;;;;;;;71.00;55.00;;;;;0.92;73.71;99767.63;5079879;27;45450;-70
2021/12/23 08:47:51;;;;;;;;;59.00;47.25;;;;;0.96;73.92;99775.47;5079077;27;45641;-68
2021/12/23 08:50:18;;;;;;;;;62.25;48.50;;;;;1.01;73.95;99771.16;5089589;27;45574;-70
2021/12/23 08:52:45;;;;;;;;;74.00;55.75;;;;;1.07;73.62;99775.56;5089602;27;45599;-70
2021/12/23 08:55:12;;;;;;;;;61.50;48.75;;;;;1.11;73.85;99774.72;5086517;27;45442;-67
2021/12/23 08:57:38;;;;;;;;;60.75;45.00;;;;;1.18;73.52;99786.88;5077473;27;45508;-68
2021/12/23 09:00:05;;;;;;;;;55.75;44.25;;;;;1.23;73.50;99787.81;5073128;27;46243;-68
2021/12/23 09:02:31;;;;;;;;;66.50;52.75;;;;;1.28;73.27;99786.13;5075004;27;45479;-68
2021/12/23 09:04:56;;;;;;;;;53.25;43.50;;;;;1.33;73.32;99791.34;5077587;27;45397;-68
2021/12/23 09:07:22;;;;;;;;;60.25;49.25;;;;;1.37;73.24;99798.28;5079333;27;45468;-68
2021/12/23 09:09:50;;;;;;;;;65.00;52.75;;;;;1.43;72.98;99800.94;5073501;27;45425;-67
2021/12/23 09:12:17;;;;;;;;;63.75;50.00;;;;;1.48;72.69;99790.59;5073966;27;45435;-68
2021/12/23 09:14:43;;;;;;;;;63.75;51.00;;;;;1.51;72.24;99796.66;5108082;27;45462;-69
2021/12/23 09:17:08;;;;;;;;;57.00;46.50;;;;;1.52;72.48;99780.22;5072248;27;45383;-68
2021/12/23 09:19:33;;;;;;;;;62.25;47.75;;;;;1.54;72.30;99781.09;5080493;27;45604;-69
2021/12/23 09:21:59;;;;;;;;;63.50;51.00;;;;;1.58;72.13;99789.78;5080584;27;45329;-69
2021/12/23 09:24:26;;;;;;;;;59.25;48.25;;;;;1.60;72.07;99791.53;5093466;27;45446;-70
2021/12/23 09:27:01;;;;;;;;;60.00;48.75;;;;;1.64;72.07;99789.84;5096122;27;45564;-69
2021/12/23 09:34:54;;;;;;;;;68.75;53.25;;;;;1.74;71.61;99797.69;5087646;27;45537;-69
2021/12/23 09:37:20;;;;;;;;;68.75;52.25;;;;;1.76;71.70;99792.50;5096545;27;45413;-69
2021/12/23 09:39:52;;;;;;;;;61.75;51.25;;;;;1.82;71.73;99787.34;5097168;27;45503;-69
2021/12/23 09:42:22;;;;;;;;;65.75;53.50;;;;;1.87;71.29;99789.97;5086831;27;45404;-69
2021/12/23 09:44:48;;;;;;;;;60.00;49.25;;;;;1.92;71.34;99791.72;5096574;27;45420;-69
2021/12/23 09:47:15;;;;;;;;;53.50;46.25;;;;;1.98;71.38;99796.97;5095160;27;45464;-69
2021/12/23 09:49:41;;;;;;;;;66.50;53.00;;;;;2.04;71.05;99786.59;5096796;27;46667;-69
2021/12/23 09:52:08;;;;;;;;;65.50;52.50;;;;;2.11;70.88;99795.28;5096928;27;45316;-69
2021/12/23 09:54:38;;;;;;;;;64.25;50.50;;;;;2.16;70.98;99791.00;5097306;27;45371;-69
2021/12/23 09:57:04;;;;;;;;;66.50;52.00;;;;;2.24;70.88;99794.47;5095242;27;45507;-68
2021/12/23 09:59:29;;;;;;;;;70.75;54.00;;;;;2.31;70.74;99788.44;5096503;27;45991;-69
2021/12/23 10:01:55;;;;;;;;;56.50;48.50;;;;;2.38;70.75;99778.91;5090963;27;45498;-69
2021/12/23 10:04:21;;;;;;;;;58.75;49.00;;;;;2.45;70.04;99778.94;5097611;27;45368;-68
2021/12/23 10:06:48;;;;;;;;;62.50;50.75;;;;;2.51;69.96;99775.50;5094271;27;45445;-69
2021/12/23 10:09:21;;;;;;;;;67.75;55.50;;;;;2.56;69.93;99773.75;5096557;27;45581;-70
2021/12/23 10:31:07;;;;;;;;;56.00;46.33;;;;;3.25;68.26;99759.06;5095946;27;45975;-67
2021/12/23 10:37:05;;;;;;;;;59.00;46.67;;;;;3.35;67.98;99749.53;5082025;27;45442;-67
2021/12/23 10:39:24;;;;;;;;;59.67;46.33;;;;;3.54;67.32;99742.53;5095226;27;45543;-67
2021/12/23 10:41:50;;;;;;;;;64.67;50.67;;;;;3.62;67.28;99735.56;5093474;27;45744;-65
2021/12/23 10:44:29;;;;;;;;;59.00;47.33;;;;;3.71;67.18;99732.94;5093690;27;45529;-65
2021/12/23 10:46:54;;;;;;;;;55.00;44.67;;;;;3.77;66.89;99731.19;5089766;27;45528;-66
2021/12/23 10:58:01;;;;;;;;;62.00;46.67;;;;;3.97;66.24;99715.47;5090035;27;45464;-66
2021/12/23 11:00:20;;;;;;;;;53.33;44.67;;;;;4.13;65.63;99703.22;5092602;27;45513;-67
2021/12/23 11:03:06;;;;;;;;;61.00;49.00;;;;;4.20;65.87;99699.69;5092587;27;45730;-66
2021/12/23 11:05:38;;;;;;;;;56.67;46.00;;;;;4.27;65.45;99698.78;5095190;27;45402;-66
2021/12/23 11:38:29;;;;;;;;;53.33;40.67;;;;;5.08;62.08;99630.28;5095750;27;45452;-66
2021/12/23 11:41:00;;;;;;;;;47.33;41.67;;;;;5.10;61.98;99631.13;5091952;27;45742;-67
2021/12/23 11:43:31;;;;;;;;;41.67;31.33;;;;;5.14;61.82;99625.00;5091007;27;45333;-67
2021/12/23 11:45:58;;;;;;;;;41.67;36.33;;;;;5.19;61.26;99608.41;5092570;27;45508;-66
2021/12/23 11:48:24;;;;;;;;;45.00;37.67;;;;;5.24;61.72;99610.94;5094967;27;45393;-67
2021/12/23 11:51:07;;;;;;;;;45.33;39.33;;;;;5.29;61.45;99608.28;5093279;27;45589;-67
2021/12/23 11:53:34;;;;;;;;;48.67;38.67;;;;;5.33;61.05;99610.84;5094403;27;45482;-67
2021/12/23 11:56:03;;;;;;;;;41.33;36.67;;;;;5.39;61.13;99599.44;5092201;27;45975;-67
2021/12/23 11:58:29;;;;;;;;;44.33;39.33;;;;;5.44;60.83;99602.88;5093837;27;45385;-65
2021/12/23 12:01:30;;;;;;;;;55.33;43.33;;;;;5.50;61.21;99595.84;5093201;27;45368;-67
2021/12/23 12:04:05;;;;;;;;;50.67;42.33;;;;;5.58;60.38;99590.50;5094910;27;45396;-67
2021/12/23 12:06:42;;;;;;;;;54.00;42.00;;;;;5.66;60.85;99587.78;5088001;27;45482;-65
2021/12/23 12:09:10;;;;;;;;;52.33;42.67;;;;;5.72;60.95;99578.09;5086947;27;45427;-67
2021/12/23 12:11:36;;;;;;;;;55.33;43.67;;;;;5.78;60.60;99570.19;5091896;27;45493;-67
2021/12/23 12:14:02;;;;;;;;;44.33;38.67;;;;;5.85;59.83;99574.44;5095081;27;45768;-67
2021/12/23 12:16:36;;;;;;;;;32.67;28.67;;;;;5.91;59.71;99569.16;5091545;27;45522;-67
2021/12/23 12:19:04;;;;;;;;;29.00;25.33;;;;;5.98;58.50;99566.44;5110683;27;45822;-66
2021/12/23 12:21:35;;;;;;;;;28.00;26.33;;;;;6.02;57.90;99557.69;5093592;27;45407;-67
2021/12/23 12:24:12;;;;;;;;;26.00;22.67;;;;;6.05;57.90;99555.84;5085738;27;45566;-67
2021/12/23 12:27:10;;;;;;;;;30.00;25.67;;;;;6.12;58.07;99546.16;5091774;27;45384;-67
2021/12/23 12:29:37;;;;;;;;;29.00;27.67;;;;;6.16;57.81;99540.88;5076619;27;45529;-65
2021/12/23 12:32:04;;;;;;;;;25.00;23.00;;;;;6.22;57.49;99540.75;5087406;27;45327;-66
2021/12/23 12:34:33;;;;;;;;;26.33;25.67;;;;;6.25;57.51;99535.47;5083020;27;45448;-65